McCall, Idaho
Current Conditions -  °F | °C
As of 4:51 AM on Friday 21 Nov 2014 (Local Time) from KMYL Reporting Station
Moderate Fog Moderate Fog  
Wind Chill: -5°   Ceiling: 200
Heat Index: -2°   Visibility: 0.5mi
Dew Point: -2°   Wind: 5mph
Humidity: 96%   Direction: 190°S
Pressure: 29.97"   Gusts: NA
Location:  44.91°N, 116.1°W
Report Text: KMYL 211151Z AUTO 19004KT 1/2SM FZFG VV002 M02/M02 A2997 RMK AO2 SLP169 70002 T10171022 11006 21017 56003
Loading
Personal Weather Stations






























Interactive Weather Map New forecast layout! Learn more

10-Day Weather Forecast

Advertisements
Track Severe Weather on mobile